TOM3PJ EGKK-LCLK
Flight info
| Callsign | TOM3PJ |
|---|---|
| Flight time | 4h 13m |
| Altitude | 37000 |
| Route | MIMFO Y312 DVR UL9 KONAN DCT KOK DCT SPI DCT ULNOK DCT VIBOM DCT NOMBO DCT RIDAR DCT RADIZ DCT VILAK/N0463F390 DCT DOL DCT NIVES DCT MONID DCT RIVUS DCT RUDAR DCT OSLUD DCT GORAV DCT MODRA DCT MEDUX UM867 KOGAT DCT ERANA UL737 TSL UN130 MES UL609 RDS UM601 EVENO DCT DASNI M601 BONEK |
| Aircraft | B738/M-SDE2E3FGHIRWXY/LB1 |
Departure
| Time | 2026-04-15 06:35 |
|---|---|
| Airport | London Gatwick Airport (EGKK) |
Arrival
| Time | 2026-04-15 10:48 |
|---|---|
| Airport | Larnaca International Airport (LCLK) |
| Time | Latitude | Longitude | Altitude | Speed | Heading |
|---|---|---|---|---|---|
| 2026-04-15 05:51 | 51.15968 | -0.17141 | 203 ft | 0 kts | 322° |
| 2026-04-15 06:21 | 51.15966 | -0.17138 | 203 ft | 3 kts | 322° |
| 2026-04-15 06:22 | 51.15945 | -0.17112 | 215 ft | 4 kts | 322° |
| 2026-04-15 06:22 | 51.15924 | -0.17086 | 203 ft | 4 kts | 317° |
| 2026-04-15 06:22 | 51.15912 | -0.17055 | 215 ft | 4 kts | 259° |
| 2026-04-15 06:22 | 51.15920 | -0.17031 | 203 ft | 4 kts | 224° |
| 2026-04-15 06:23 | 51.15932 | -0.17012 | 203 ft | 0 kts | 224° |
| 2026-04-15 06:27 | 51.15931 | -0.17015 | 203 ft | 2 kts | 224° |
| 2026-04-15 06:27 | 51.15901 | -0.17050 | 203 ft | 8 kts | 211° |
| 2026-04-15 06:27 | 51.15843 | -0.17079 | 203 ft | 9 kts | 189° |
| 2026-04-15 06:28 | 51.15810 | -0.17151 | 203 ft | 9 kts | 257° |
| 2026-04-15 06:28 | 51.15797 | -0.17243 | 206 ft | 8 kts | 258° |
| 2026-04-15 06:28 | 51.15786 | -0.17329 | 203 ft | 7 kts | 257° |
| 2026-04-15 06:28 | 51.15775 | -0.17405 | 206 ft | 7 kts | 257° |
| 2026-04-15 06:29 | 51.15764 | -0.17478 | 206 ft | 7 kts | 245° |
| 2026-04-15 06:29 | 51.15722 | -0.17497 | 207 ft | 7 kts | 173° |
| 2026-04-15 06:29 | 51.15677 | -0.17483 | 204 ft | 7 kts | 166° |
| 2026-04-15 06:29 | 51.15632 | -0.17468 | 212 ft | 6 kts | 168° |
| 2026-04-15 06:30 | 51.15589 | -0.17453 | 205 ft | 6 kts | 168° |
| 2026-04-15 06:30 | 51.15542 | -0.17437 | 210 ft | 7 kts | 168° |
| 2026-04-15 06:30 | 51.15495 | -0.17420 | 208 ft | 7 kts | 167° |
| 2026-04-15 06:30 | 51.15449 | -0.17404 | 213 ft | 7 kts | 167° |
| 2026-04-15 06:31 | 51.15398 | -0.17386 | 203 ft | 8 kts | 167° |
| 2026-04-15 06:31 | 51.15339 | -0.17365 | 209 ft | 9 kts | 168° |
| 2026-04-15 06:31 | 51.15272 | -0.17342 | 205 ft | 11 kts | 168° |
| 2026-04-15 06:31 | 51.15210 | -0.17278 | 203 ft | 11 kts | 140° |
| 2026-04-15 06:32 | 51.15179 | -0.17181 | 208 ft | 10 kts | 75° |
| 2026-04-15 06:32 | 51.15197 | -0.17071 | 205 ft | 10 kts | 78° |
| 2026-04-15 06:32 | 51.15212 | -0.16962 | 203 ft | 10 kts | 77° |
| 2026-04-15 06:32 | 51.15223 | -0.16858 | 203 ft | 10 kts | 95° |
| 2026-04-15 06:33 | 51.15178 | -0.16791 | 208 ft | 9 kts | 166° |
| 2026-04-15 06:33 | 51.15125 | -0.16798 | 209 ft | 7 kts | 228° |
| 2026-04-15 06:33 | 51.15118 | -0.16829 | 201 ft | 0 kts | 256° |
| 2026-04-15 06:34 | 51.15118 | -0.16831 | 210 ft | 2 kts | 256° |
| 2026-04-15 06:34 | 51.15101 | -0.16948 | 202 ft | 26 kts | 257° |
| 2026-04-15 06:34 | 51.15010 | -0.17615 | 210 ft | 96 kts | 258° |
| 2026-04-15 06:35 | 51.14819 | -0.18989 | 205 ft | 155 kts | 257° |
| 2026-04-15 06:35 | 51.14584 | -0.20820 | 627 ft | 171 kts | 256° |
| 2026-04-15 06:35 | 51.14353 | -0.22664 | 1505 ft | 168 kts | 257° |
| 2026-04-15 06:35 | 51.14124 | -0.24503 | 2236 ft | 171 kts | 252° |
| 2026-04-15 06:36 | 51.13851 | -0.26398 | 2851 ft | 183 kts | 256° |
| 2026-04-15 06:36 | 51.13742 | -0.28542 | 3121 ft | 211 kts | 279° |
| 2026-04-15 06:36 | 51.14445 | -0.30694 | 3583 ft | 230 kts | 308° |
| 2026-04-15 06:36 | 51.15727 | -0.32289 | 3967 ft | 241 kts | 332° |
| 2026-04-15 06:37 | 51.17370 | -0.32677 | 3977 ft | 250 kts | 10° |
| 2026-04-15 06:37 | 51.18942 | -0.31463 | 3996 ft | 252 kts | 47° |
| 2026-04-15 06:37 | 51.19767 | -0.29108 | 4015 ft | 248 kts | 82° |
| 2026-04-15 06:37 | 51.19990 | -0.26380 | 4002 ft | 250 kts | 90° |
| 2026-04-15 06:38 | 51.20150 | -0.23611 | 3992 ft | 249 kts | 89° |
| 2026-04-15 06:38 | 51.20333 | -0.20869 | 4067 ft | 249 kts | 88° |
| 2026-04-15 06:38 | 51.20604 | -0.18021 | 4259 ft | 271 kts | 83° |
| 2026-04-15 06:38 | 51.20995 | -0.15005 | 4845 ft | 283 kts | 79° |
| 2026-04-15 06:39 | 51.21490 | -0.11938 | 5606 ft | 287 kts | 78° |
| 2026-04-15 06:39 | 51.21945 | -0.08830 | 6467 ft | 288 kts | 82° |
| 2026-04-15 06:39 | 51.22333 | -0.05677 | 7229 ft | 292 kts | 83° |
| 2026-04-15 06:39 | 51.22718 | -0.02466 | 8036 ft | 295 kts | 83° |
| 2026-04-15 06:40 | 51.23108 | 0.00767 | 8727 ft | 298 kts | 83° |
| 2026-04-15 06:40 | 51.23525 | 0.04027 | 9466 ft | 303 kts | 82° |
| 2026-04-15 06:40 | 51.23950 | 0.07337 | 10131 ft | 307 kts | 82° |
| 2026-04-15 06:40 | 51.24387 | 0.10767 | 10392 ft | 327 kts | 82° |
| 2026-04-15 06:41 | 51.24861 | 0.14459 | 10536 ft | 350 kts | 82° |
| 2026-04-15 06:41 | 51.25330 | 0.18349 | 10846 ft | 362 kts | 85° |
| 2026-04-15 06:41 | 51.25400 | 0.22364 | 11419 ft | 363 kts | 98° |
| 2026-04-15 06:41 | 51.25100 | 0.26369 | 12077 ft | 365 kts | 101° |
| 2026-04-15 06:42 | 51.24766 | 0.30358 | 12666 ft | 370 kts | 101° |
| 2026-04-15 06:42 | 51.24431 | 0.34453 | 13277 ft | 375 kts | 100° |
| 2026-04-15 06:42 | 51.24105 | 0.38609 | 13899 ft | 379 kts | 100° |
| 2026-04-15 06:42 | 51.23786 | 0.42797 | 14500 ft | 382 kts | 100° |
| 2026-04-15 06:43 | 51.23463 | 0.47029 | 15093 ft | 387 kts | 100° |
| 2026-04-15 06:43 | 51.23136 | 0.51303 | 15702 ft | 390 kts | 99° |
| 2026-04-15 06:43 | 51.22800 | 0.55620 | 16297 ft | 394 kts | 99° |
| 2026-04-15 06:43 | 51.22461 | 0.59970 | 16899 ft | 398 kts | 99° |
| 2026-04-15 06:44 | 51.22115 | 0.64396 | 17524 ft | 402 kts | 99° |
| 2026-04-15 06:44 | 51.21766 | 0.68841 | 18151 ft | 406 kts | 99° |
| 2026-04-15 06:44 | 51.21413 | 0.73334 | 18690 ft | 409 kts | 99° |
| 2026-04-15 06:44 | 51.21037 | 0.77843 | 19271 ft | 411 kts | 101° |
| 2026-04-15 06:45 | 51.20546 | 0.82338 | 19873 ft | 412 kts | 103° |
| 2026-04-15 06:45 | 51.19991 | 0.86822 | 20448 ft | 414 kts | 104° |
| 2026-04-15 06:45 | 51.19408 | 0.91349 | 20990 ft | 418 kts | 104° |
| 2026-04-15 06:45 | 51.18823 | 0.95887 | 21560 ft | 420 kts | 103° |
| 2026-04-15 06:46 | 51.18222 | 1.00475 | 22045 ft | 423 kts | 104° |
| 2026-04-15 06:46 | 51.17574 | 1.05062 | 22509 ft | 426 kts | 105° |
| 2026-04-15 06:46 | 51.16898 | 1.09678 | 22959 ft | 429 kts | 105° |
| 2026-04-15 06:46 | 51.16211 | 1.14331 | 23429 ft | 432 kts | 105° |
| 2026-04-15 06:47 | 51.15519 | 1.19005 | 23860 ft | 435 kts | 105° |
| 2026-04-15 06:47 | 51.14826 | 1.23702 | 24242 ft | 437 kts | 105° |
| 2026-04-15 06:47 | 51.14130 | 1.28431 | 24621 ft | 440 kts | 105° |
| 2026-04-15 06:47 | 51.13430 | 1.33189 | 24990 ft | 443 kts | 105° |
| 2026-04-15 06:48 | 51.12725 | 1.37982 | 25348 ft | 446 kts | 105° |
| 2026-04-15 06:48 | 51.12015 | 1.42799 | 25687 ft | 448 kts | 105° |
| 2026-04-15 06:48 | 51.11300 | 1.47642 | 26038 ft | 451 kts | 105° |
| 2026-04-15 06:48 | 51.10578 | 1.52512 | 26373 ft | 453 kts | 105° |
| 2026-04-15 06:49 | 51.09851 | 1.57405 | 26704 ft | 456 kts | 105° |
| 2026-04-15 06:49 | 51.09116 | 1.62332 | 27023 ft | 459 kts | 105° |
| 2026-04-15 06:49 | 51.08375 | 1.67281 | 27348 ft | 461 kts | 105° |
| 2026-04-15 06:50 | 51.06885 | 1.77193 | 27974 ft | 466 kts | 105° |
| 2026-04-15 06:50 | 51.06125 | 1.82219 | 28270 ft | 469 kts | 105° |
| 2026-04-15 06:50 | 51.05361 | 1.87261 | 28559 ft | 471 kts | 105° |
| 2026-04-15 06:50 | 51.04589 | 1.92339 | 28819 ft | 474 kts | 105° |
| 2026-04-15 06:51 | 51.03809 | 1.97450 | 29066 ft | 477 kts | 105° |
| 2026-04-15 06:51 | 51.03024 | 2.02585 | 29355 ft | 479 kts | 105° |
| 2026-04-15 06:51 | 51.02232 | 2.07740 | 29658 ft | 481 kts | 105° |
| 2026-04-15 06:51 | 51.01436 | 2.12915 | 29948 ft | 484 kts | 104° |
| 2026-04-15 06:52 | 51.00637 | 2.18115 | 30223 ft | 485 kts | 105° |
| 2026-04-15 06:52 | 50.99808 | 2.23313 | 30413 ft | 488 kts | 105° |
| 2026-04-15 06:52 | 50.98947 | 2.28519 | 30806 ft | 487 kts | 106° |
| 2026-04-15 06:52 | 50.98167 | 2.33758 | 31306 ft | 485 kts | 103° |
| 2026-04-15 06:53 | 50.97409 | 2.38954 | 31708 ft | 483 kts | 104° |
| 2026-04-15 06:53 | 50.96608 | 2.44125 | 31875 ft | 485 kts | 105° |
| 2026-04-15 06:53 | 50.95784 | 2.49342 | 32016 ft | 489 kts | 105° |
| 2026-04-15 06:53 | 50.94949 | 2.54560 | 32297 ft | 488 kts | 105° |
| 2026-04-15 06:54 | 50.94112 | 2.59778 | 32672 ft | 486 kts | 105° |
| 2026-04-15 06:54 | 50.93283 | 2.64967 | 33041 ft | 484 kts | 105° |
| 2026-04-15 06:54 | 50.92456 | 2.70135 | 33290 ft | 484 kts | 105° |
| 2026-04-15 06:54 | 50.91624 | 2.75316 | 33498 ft | 486 kts | 105° |
| 2026-04-15 06:55 | 50.90791 | 2.80497 | 33754 ft | 486 kts | 105° |
| 2026-04-15 06:55 | 50.90237 | 2.83932 | 33972 ft | 485 kts | 104° |
| 2026-04-15 06:55 | 50.89123 | 2.90842 | 34304 ft | 484 kts | 104° |
| 2026-04-15 06:55 | 50.88569 | 2.94268 | 34423 ft | 485 kts | 104° |
| 2026-04-15 06:56 | 50.87728 | 2.99449 | 34615 ft | 486 kts | 104° |
| 2026-04-15 06:56 | 50.86888 | 3.04614 | 34850 ft | 485 kts | 104° |
| 2026-04-15 06:56 | 50.86042 | 3.09792 | 35080 ft | 484 kts | 104° |
| 2026-04-15 06:56 | 50.84922 | 3.16625 | 35321 ft | 485 kts | 104° |
| 2026-04-15 06:57 | 50.84074 | 3.21777 | 35519 ft | 485 kts | 104° |
| 2026-04-15 06:57 | 50.83499 | 3.25266 | 35657 ft | 485 kts | 104° |
| 2026-04-15 06:57 | 50.82645 | 3.30425 | 35864 ft | 484 kts | 104° |
| 2026-04-15 06:57 | 50.81802 | 3.35513 | 36119 ft | 483 kts | 104° |
| 2026-04-15 06:58 | 50.80949 | 3.40641 | 36344 ft | 482 kts | 104° |
| 2026-04-15 06:58 | 50.80083 | 3.45832 | 36529 ft | 482 kts | 104° |
| 2026-04-15 06:58 | 50.79237 | 3.50886 | 36707 ft | 482 kts | 104° |
| 2026-04-15 06:58 | 50.78379 | 3.55999 | 36903 ft | 482 kts | 104° |
| 2026-04-15 06:59 | 50.77516 | 3.61126 | 37106 ft | 481 kts | 104° |
| 2026-04-15 06:59 | 50.76654 | 3.66238 | 37219 ft | 483 kts | 104° |
| 2026-04-15 06:59 | 50.74911 | 3.76516 | 37225 ft | 484 kts | 103° |
| 2026-04-15 07:00 | 50.73166 | 3.86726 | 37211 ft | 480 kts | 103° |
| 2026-04-15 07:00 | 50.71427 | 3.96863 | 37206 ft | 477 kts | 103° |
| 2026-04-15 07:01 | 50.69690 | 4.06928 | 37224 ft | 474 kts | 103° |
| 2026-04-15 07:01 | 50.67953 | 4.16937 | 37220 ft | 473 kts | 103° |
| 2026-04-15 07:02 | 50.66205 | 4.26959 | 37226 ft | 474 kts | 104° |
| 2026-04-15 07:02 | 50.64442 | 4.37002 | 37222 ft | 476 kts | 104° |
| 2026-04-15 07:03 | 50.62669 | 4.47052 | 37218 ft | 478 kts | 104° |
| 2026-04-15 07:03 | 50.60886 | 4.57095 | 37216 ft | 480 kts | 104° |
| 2026-04-15 07:04 | 50.59061 | 4.67313 | 37227 ft | 483 kts | 103° |
| 2026-04-15 07:04 | 50.57244 | 4.77435 | 37221 ft | 485 kts | 103° |
| 2026-04-15 07:05 | 50.55401 | 4.87642 | 37223 ft | 485 kts | 104° |
| 2026-04-15 07:05 | 50.53546 | 4.97853 | 37225 ft | 485 kts | 104° |
| 2026-04-15 07:06 | 50.51688 | 5.08034 | 37220 ft | 484 kts | 104° |
| 2026-04-15 07:06 | 50.49825 | 5.18184 | 37233 ft | 482 kts | 103° |
| 2026-04-15 07:07 | 50.47958 | 5.28290 | 37226 ft | 481 kts | 103° |
| 2026-04-15 07:07 | 50.46091 | 5.38347 | 37232 ft | 479 kts | 103° |
| 2026-04-15 07:08 | 50.44236 | 5.48289 | 37237 ft | 477 kts | 103° |
| 2026-04-15 07:08 | 50.42366 | 5.58254 | 37258 ft | 475 kts | 103° |
| 2026-04-15 07:09 | 50.40493 | 5.68186 | 37248 ft | 474 kts | 103° |
| 2026-04-15 07:09 | 50.38615 | 5.78089 | 37245 ft | 474 kts | 103° |
| 2026-04-15 07:10 | 50.36730 | 5.87986 | 37230 ft | 474 kts | 103° |
| 2026-04-15 07:10 | 50.34835 | 5.97883 | 37226 ft | 475 kts | 103° |
| 2026-04-15 07:11 | 50.32927 | 6.07786 | 37244 ft | 476 kts | 103° |
| 2026-04-15 07:11 | 50.31004 | 6.17712 | 37231 ft | 477 kts | 103° |
| 2026-04-15 07:12 | 50.29065 | 6.27668 | 37227 ft | 478 kts | 103° |
| 2026-04-15 07:12 | 50.27118 | 6.37620 | 37228 ft | 479 kts | 103° |
| 2026-04-15 07:13 | 50.25160 | 6.47574 | 37234 ft | 480 kts | 103° |
| 2026-04-15 07:13 | 50.23205 | 6.57466 | 37234 ft | 479 kts | 103° |
| 2026-04-15 07:14 | 50.21232 | 6.67394 | 37237 ft | 478 kts | 103° |
| 2026-04-15 07:14 | 50.19255 | 6.77288 | 37233 ft | 477 kts | 103° |
| 2026-04-15 07:15 | 50.17272 | 6.87172 | 37238 ft | 476 kts | 103° |
| 2026-04-15 07:15 | 50.15286 | 6.97019 | 37243 ft | 475 kts | 102° |
| 2026-04-15 07:16 | 50.13294 | 7.06841 | 37239 ft | 474 kts | 103° |
| 2026-04-15 07:16 | 50.11304 | 7.16608 | 37233 ft | 472 kts | 103° |
| 2026-04-15 07:17 | 50.09310 | 7.26351 | 37243 ft | 471 kts | 103° |
| 2026-04-15 07:17 | 50.07313 | 7.36061 | 37265 ft | 471 kts | 103° |
| 2026-04-15 07:18 | 50.05307 | 7.45761 | 37253 ft | 470 kts | 103° |
| 2026-04-15 07:18 | 50.03296 | 7.55433 | 37260 ft | 469 kts | 103° |
| 2026-04-15 07:19 | 50.01283 | 7.65073 | 37265 ft | 469 kts | 103° |
| 2026-04-15 07:19 | 49.99263 | 7.74701 | 37277 ft | 468 kts | 103° |
| 2026-04-15 07:20 | 49.97236 | 7.84323 | 37282 ft | 468 kts | 102° |
| 2026-04-15 07:20 | 49.95198 | 7.93929 | 37274 ft | 469 kts | 103° |
| 2026-04-15 07:21 | 49.93167 | 8.03477 | 37284 ft | 469 kts | 103° |
| 2026-04-15 07:21 | 49.91118 | 8.13076 | 37283 ft | 469 kts | 103° |
| 2026-04-15 07:22 | 49.89059 | 8.22663 | 37290 ft | 469 kts | 102° |
| 2026-04-15 07:22 | 49.86988 | 8.32270 | 37283 ft | 470 kts | 102° |
| 2026-04-15 07:23 | 49.84659 | 8.41762 | 37262 ft | 477 kts | 113° |
| 2026-04-15 07:23 | 49.80804 | 8.50232 | 37283 ft | 484 kts | 125° |
| 2026-04-15 07:24 | 49.76531 | 8.58297 | 37275 ft | 484 kts | 125° |
| 2026-04-15 07:24 | 49.72278 | 8.66396 | 37274 ft | 484 kts | 124° |
| 2026-04-15 07:25 | 49.68085 | 8.74469 | 37271 ft | 485 kts | 124° |
| 2026-04-15 07:25 | 49.63843 | 8.82644 | 37271 ft | 485 kts | 124° |
| 2026-04-15 07:26 | 49.59626 | 8.90742 | 37267 ft | 485 kts | 124° |
| 2026-04-15 07:26 | 49.55422 | 8.98784 | 37273 ft | 484 kts | 124° |
| 2026-04-15 07:27 | 49.51184 | 9.06871 | 37261 ft | 485 kts | 124° |
| 2026-04-15 07:27 | 49.46947 | 9.14937 | 37257 ft | 485 kts | 124° |
| 2026-04-15 07:28 | 49.43125 | 9.23400 | 37257 ft | 480 kts | 117° |
| 2026-04-15 07:28 | 49.39539 | 9.32044 | 37246 ft | 480 kts | 117° |
| 2026-04-15 07:29 | 49.35931 | 9.40643 | 37276 ft | 479 kts | 118° |
| 2026-04-15 07:29 | 49.32271 | 9.49217 | 37252 ft | 480 kts | 118° |
| 2026-04-15 07:30 | 49.28594 | 9.57759 | 37244 ft | 480 kts | 118° |
| 2026-04-15 07:30 | 49.24937 | 9.66228 | 37236 ft | 480 kts | 118° |
| 2026-04-15 07:31 | 49.21250 | 9.74747 | 37269 ft | 480 kts | 118° |
| 2026-04-15 07:31 | 49.17558 | 9.83254 | 37265 ft | 480 kts | 118° |
| 2026-04-15 07:32 | 49.13854 | 9.91759 | 37254 ft | 481 kts | 118° |
| 2026-04-15 07:32 | 49.10148 | 10.00245 | 37245 ft | 481 kts | 118° |
| 2026-04-15 07:33 | 49.06393 | 10.08692 | 37250 ft | 483 kts | 123° |
| 2026-04-15 07:33 | 49.01738 | 10.16173 | 37256 ft | 488 kts | 131° |
| 2026-04-15 07:34 | 48.96865 | 10.23370 | 37242 ft | 488 kts | 131° |
| 2026-04-15 07:34 | 48.92023 | 10.30592 | 37252 ft | 487 kts | 131° |
| 2026-04-15 07:35 | 48.87221 | 10.37823 | 37254 ft | 485 kts | 131° |
| 2026-04-15 07:35 | 48.82440 | 10.45024 | 37253 ft | 484 kts | 130° |
| 2026-04-15 07:36 | 48.77667 | 10.52190 | 37251 ft | 482 kts | 131° |
| 2026-04-15 07:36 | 48.72896 | 10.59325 | 37254 ft | 481 kts | 131° |
| 2026-04-15 07:37 | 48.68140 | 10.66419 | 37241 ft | 479 kts | 131° |
| 2026-04-15 07:37 | 48.63400 | 10.73473 | 37238 ft | 477 kts | 131° |
| 2026-04-15 07:38 | 48.58684 | 10.80498 | 37239 ft | 474 kts | 129° |
| 2026-04-15 07:38 | 48.54424 | 10.88014 | 37261 ft | 469 kts | 124° |
| 2026-04-15 07:39 | 48.50382 | 10.95732 | 37241 ft | 468 kts | 123° |
| 2026-04-15 07:39 | 48.46321 | 11.03412 | 37234 ft | 468 kts | 124° |
| 2026-04-15 07:40 | 48.42215 | 11.11034 | 37238 ft | 468 kts | 124° |
| 2026-04-15 07:40 | 48.38122 | 11.18567 | 37237 ft | 468 kts | 124° |
| 2026-04-15 07:41 | 48.33996 | 11.26129 | 37247 ft | 467 kts | 125° |
| 2026-04-15 07:41 | 48.29873 | 11.33678 | 37236 ft | 467 kts | 125° |
| 2026-04-15 07:42 | 48.25740 | 11.41219 | 37240 ft | 468 kts | 125° |
| 2026-04-15 07:42 | 48.21599 | 11.48754 | 37231 ft | 468 kts | 125° |
| 2026-04-15 07:43 | 48.17457 | 11.56270 | 37234 ft | 468 kts | 125° |
| 2026-04-15 07:43 | 48.13303 | 11.63786 | 37248 ft | 469 kts | 126° |
| 2026-04-15 07:44 | 48.09142 | 11.71296 | 37239 ft | 469 kts | 126° |
| 2026-04-15 07:44 | 48.05670 | 11.77546 | 37236 ft | 469 kts | 126° |
| 2026-04-15 07:45 | 48.01494 | 11.85042 | 37241 ft | 470 kts | 126° |
| 2026-04-15 07:45 | 47.97309 | 11.92533 | 37231 ft | 470 kts | 126° |
| 2026-04-15 07:46 | 47.93114 | 12.00024 | 37246 ft | 470 kts | 127° |
| 2026-04-15 07:46 | 47.88920 | 12.07491 | 37234 ft | 469 kts | 127° |
| 2026-04-15 07:47 | 47.84729 | 12.14933 | 37239 ft | 468 kts | 127° |
| 2026-04-15 07:47 | 47.80542 | 12.22347 | 37239 ft | 467 kts | 127° |
| 2026-04-15 07:48 | 47.76356 | 12.29739 | 37248 ft | 467 kts | 127° |
| 2026-04-15 07:48 | 47.72172 | 12.37109 | 37243 ft | 465 kts | 127° |
| 2026-04-15 07:49 | 47.68018 | 12.44410 | 37224 ft | 464 kts | 127° |
| 2026-04-15 07:49 | 47.63852 | 12.51705 | 37242 ft | 463 kts | 127° |
| 2026-04-15 07:50 | 47.59504 | 12.58765 | 37242 ft | 464 kts | 131° |
| 2026-04-15 07:50 | 47.54958 | 12.65576 | 37249 ft | 465 kts | 132° |
| 2026-04-15 07:51 | 47.50403 | 12.72373 | 37244 ft | 464 kts | 132° |
| 2026-04-15 07:51 | 47.45869 | 12.79177 | 37225 ft | 465 kts | 132° |
| 2026-04-15 07:52 | 47.41338 | 12.85983 | 37213 ft | 465 kts | 132° |
| 2026-04-15 07:52 | 47.36808 | 12.92777 | 37217 ft | 465 kts | 132° |
| 2026-04-15 07:53 | 47.32260 | 12.99578 | 37221 ft | 466 kts | 132° |
| 2026-04-15 07:53 | 47.27709 | 13.06368 | 37225 ft | 466 kts | 133° |
| 2026-04-15 07:54 | 47.23148 | 13.13148 | 37216 ft | 465 kts | 133° |
| 2026-04-15 07:54 | 47.18598 | 13.19894 | 37217 ft | 465 kts | 133° |
| 2026-04-15 07:55 | 47.14073 | 13.26589 | 37210 ft | 465 kts | 133° |
| 2026-04-15 07:56 | 47.07231 | 13.36679 | 37202 ft | 463 kts | 133° |
| 2026-04-15 07:56 | 47.02681 | 13.43370 | 37225 ft | 463 kts | 133° |
| 2026-04-15 07:57 | 46.98117 | 13.50062 | 37196 ft | 463 kts | 133° |
| 2026-04-15 07:57 | 46.93566 | 13.56717 | 37200 ft | 461 kts | 133° |
| 2026-04-15 07:58 | 46.89031 | 13.63332 | 37226 ft | 459 kts | 134° |
| 2026-04-15 07:58 | 46.84512 | 13.69907 | 37216 ft | 458 kts | 134° |
| 2026-04-15 07:59 | 46.79999 | 13.76459 | 37219 ft | 456 kts | 134° |
| 2026-04-15 07:59 | 46.75502 | 13.82973 | 37215 ft | 455 kts | 134° |
| 2026-04-15 08:00 | 46.71009 | 13.89466 | 37229 ft | 454 kts | 134° |
| 2026-04-15 08:00 | 46.66532 | 13.95902 | 37300 ft | 458 kts | 135° |
| 2026-04-15 08:00 | 46.64229 | 13.99197 | 37440 ft | 459 kts | 135° |
| 2026-04-15 08:01 | 46.61981 | 14.02408 | 37653 ft | 458 kts | 135° |
| 2026-04-15 08:01 | 46.59678 | 14.05694 | 37885 ft | 457 kts | 135° |
| 2026-04-15 08:01 | 46.57406 | 14.08933 | 38068 ft | 458 kts | 135° |
| 2026-04-15 08:01 | 46.55166 | 14.12123 | 38218 ft | 458 kts | 135° |
| 2026-04-15 08:02 | 46.52881 | 14.15375 | 38349 ft | 459 kts | 135° |
| 2026-04-15 08:02 | 46.50597 | 14.18622 | 38476 ft | 460 kts | 135° |
| 2026-04-15 08:02 | 46.48307 | 14.21873 | 38625 ft | 461 kts | 135° |
| 2026-04-15 08:02 | 46.46018 | 14.25119 | 38757 ft | 461 kts | 135° |
| 2026-04-15 08:03 | 46.43718 | 14.28368 | 38934 ft | 461 kts | 135° |
| 2026-04-15 08:03 | 46.39127 | 14.34860 | 39075 ft | 462 kts | 135° |
| 2026-04-15 08:03 | 46.36821 | 14.38115 | 39189 ft | 461 kts | 135° |
| 2026-04-15 08:04 | 46.34524 | 14.41356 | 39224 ft | 462 kts | 135° |
| 2026-04-15 08:04 | 46.29865 | 14.47911 | 39245 ft | 466 kts | 135° |
| 2026-04-15 08:05 | 46.25220 | 14.54426 | 39239 ft | 470 kts | 135° |
| 2026-04-15 08:05 | 46.20520 | 14.61006 | 39236 ft | 470 kts | 135° |
| 2026-04-15 08:06 | 46.15857 | 14.67517 | 39221 ft | 462 kts | 135° |
| 2026-04-15 08:06 | 46.11263 | 14.73918 | 39229 ft | 457 kts | 135° |
| 2026-04-15 08:07 | 46.06682 | 14.80254 | 39226 ft | 455 kts | 136° |
| 2026-04-15 08:07 | 46.02055 | 14.86445 | 39233 ft | 454 kts | 137° |
| 2026-04-15 08:08 | 45.97437 | 14.92571 | 39240 ft | 454 kts | 137° |
| 2026-04-15 08:08 | 45.92765 | 14.98782 | 39230 ft | 455 kts | 137° |
| 2026-04-15 08:09 | 45.88150 | 15.04916 | 39239 ft | 456 kts | 137° |
| 2026-04-15 08:09 | 45.83488 | 15.11102 | 39238 ft | 457 kts | 137° |
| 2026-04-15 08:10 | 45.78810 | 15.17293 | 39236 ft | 458 kts | 137° |
| 2026-04-15 08:10 | 45.74113 | 15.23490 | 39245 ft | 459 kts | 138° |
| 2026-04-15 08:11 | 45.69402 | 15.29694 | 39240 ft | 461 kts | 138° |
| 2026-04-15 08:11 | 45.64679 | 15.35899 | 39233 ft | 461 kts | 138° |
| 2026-04-15 08:12 | 45.59946 | 15.42105 | 39228 ft | 462 kts | 138° |
| 2026-04-15 08:12 | 45.55200 | 15.48310 | 39235 ft | 463 kts | 138° |
| 2026-04-15 08:13 | 45.50450 | 15.54506 | 39222 ft | 463 kts | 138° |
| 2026-04-15 08:13 | 45.45697 | 15.60690 | 39227 ft | 462 kts | 138° |
| 2026-04-15 08:14 | 45.40948 | 15.66854 | 39212 ft | 461 kts | 138° |
| 2026-04-15 08:14 | 45.36215 | 15.72982 | 39218 ft | 459 kts | 139° |
| 2026-04-15 08:15 | 45.31507 | 15.79068 | 39214 ft | 456 kts | 139° |
| 2026-04-15 08:15 | 45.26819 | 15.85114 | 39210 ft | 454 kts | 139° |
| 2026-04-15 08:16 | 45.22154 | 15.91137 | 39216 ft | 452 kts | 136° |
| 2026-04-15 08:16 | 45.17861 | 15.97662 | 39219 ft | 451 kts | 132° |
| 2026-04-15 08:17 | 45.13727 | 16.04270 | 39214 ft | 451 kts | 133° |
| 2026-04-15 08:17 | 45.09538 | 16.10859 | 39204 ft | 450 kts | 133° |
| 2026-04-15 08:18 | 45.05317 | 16.17418 | 39214 ft | 451 kts | 133° |
| 2026-04-15 08:18 | 45.01082 | 16.23977 | 39221 ft | 453 kts | 133° |
| 2026-04-15 08:19 | 44.96823 | 16.30567 | 39206 ft | 454 kts | 132° |
| 2026-04-15 08:19 | 44.92746 | 16.37396 | 39206 ft | 455 kts | 130° |
| 2026-04-15 08:20 | 44.88770 | 16.44372 | 39196 ft | 456 kts | 129° |
| 2026-04-15 08:20 | 44.84785 | 16.51324 | 39195 ft | 456 kts | 130° |
| 2026-04-15 08:21 | 44.80805 | 16.58196 | 39198 ft | 456 kts | 130° |
| 2026-04-15 08:21 | 44.76785 | 16.65092 | 39189 ft | 455 kts | 130° |
| 2026-04-15 08:22 | 44.72765 | 16.71968 | 39188 ft | 454 kts | 130° |
| 2026-04-15 08:22 | 44.68752 | 16.78819 | 39190 ft | 453 kts | 130° |
| 2026-04-15 08:23 | 44.64746 | 16.85642 | 39191 ft | 451 kts | 130° |
| 2026-04-15 08:23 | 44.60753 | 16.92428 | 39188 ft | 450 kts | 130° |
| 2026-04-15 08:24 | 44.56767 | 16.99187 | 39187 ft | 449 kts | 130° |
| 2026-04-15 08:24 | 44.52809 | 17.05881 | 39181 ft | 448 kts | 130° |
| 2026-04-15 08:25 | 44.48836 | 17.12582 | 39178 ft | 446 kts | 130° |
| 2026-04-15 08:25 | 44.44866 | 17.19264 | 39168 ft | 446 kts | 130° |
| 2026-04-15 08:26 | 44.40900 | 17.25926 | 39165 ft | 445 kts | 130° |
| 2026-04-15 08:26 | 44.36927 | 17.32579 | 39172 ft | 446 kts | 130° |
| 2026-04-15 08:27 | 44.32937 | 17.39246 | 39166 ft | 448 kts | 131° |
| 2026-04-15 08:27 | 44.28926 | 17.45939 | 39158 ft | 450 kts | 130° |
| 2026-04-15 08:28 | 44.24901 | 17.52639 | 39156 ft | 451 kts | 131° |
| 2026-04-15 08:28 | 44.20854 | 17.59351 | 39166 ft | 453 kts | 131° |
| 2026-04-15 08:29 | 44.16789 | 17.66081 | 39157 ft | 455 kts | 131° |
| 2026-04-15 08:29 | 44.12708 | 17.72826 | 39149 ft | 456 kts | 131° |
| 2026-04-15 08:30 | 44.09306 | 17.78437 | 39148 ft | 457 kts | 130° |
| 2026-04-15 08:30 | 44.05203 | 17.85179 | 39152 ft | 457 kts | 131° |
| 2026-04-15 08:31 | 44.01099 | 17.91918 | 39147 ft | 457 kts | 131° |
| 2026-04-15 08:31 | 43.96994 | 17.98647 | 39152 ft | 456 kts | 131° |
| 2026-04-15 08:32 | 43.92922 | 18.05301 | 39144 ft | 455 kts | 131° |
| 2026-04-15 08:32 | 43.88761 | 18.11890 | 39156 ft | 453 kts | 133° |
| 2026-04-15 08:33 | 43.84570 | 18.18386 | 39155 ft | 452 kts | 133° |
| 2026-04-15 08:33 | 43.80382 | 18.24889 | 39153 ft | 452 kts | 133° |
| 2026-04-15 08:34 | 43.76202 | 18.31387 | 39155 ft | 452 kts | 133° |
| 2026-04-15 08:34 | 43.72022 | 18.37875 | 39152 ft | 452 kts | 133° |
| 2026-04-15 08:35 | 43.67842 | 18.44352 | 39149 ft | 452 kts | 133° |
| 2026-04-15 08:35 | 43.63686 | 18.50873 | 39145 ft | 453 kts | 130° |
| 2026-04-15 08:36 | 43.59771 | 18.57685 | 39143 ft | 453 kts | 129° |
| 2026-04-15 08:36 | 43.55915 | 18.64597 | 39139 ft | 455 kts | 129° |
| 2026-04-15 08:37 | 43.51949 | 18.71411 | 39133 ft | 456 kts | 129° |
| 2026-04-15 08:37 | 43.47978 | 18.78208 | 39135 ft | 456 kts | 129° |
| 2026-04-15 08:38 | 43.44029 | 18.85020 | 39123 ft | 454 kts | 129° |
| 2026-04-15 08:38 | 43.40108 | 18.91818 | 39109 ft | 452 kts | 129° |
| 2026-04-15 08:39 | 43.36208 | 18.98564 | 39116 ft | 449 kts | 130° |
| 2026-04-15 08:39 | 43.32287 | 19.05227 | 39133 ft | 448 kts | 129° |
| 2026-04-15 08:40 | 43.28423 | 19.11899 | 39135 ft | 448 kts | 129° |
| 2026-04-15 08:40 | 43.24491 | 19.18523 | 39108 ft | 449 kts | 130° |
| 2026-04-15 08:41 | 43.20593 | 19.25205 | 39122 ft | 448 kts | 130° |
| 2026-04-15 08:41 | 43.16699 | 19.31858 | 39106 ft | 447 kts | 130° |
| 2026-04-15 08:42 | 43.12791 | 19.38476 | 39120 ft | 446 kts | 130° |
| 2026-04-15 08:42 | 43.08889 | 19.45079 | 39111 ft | 445 kts | 130° |
| 2026-04-15 08:43 | 43.04996 | 19.51655 | 39107 ft | 444 kts | 130° |
| 2026-04-15 08:43 | 43.01097 | 19.58225 | 39111 ft | 445 kts | 130° |
| 2026-04-15 08:44 | 42.97193 | 19.64788 | 39103 ft | 444 kts | 130° |
| 2026-04-15 08:44 | 42.93301 | 19.71319 | 39099 ft | 443 kts | 130° |
| 2026-04-15 08:45 | 42.89445 | 19.77785 | 39107 ft | 442 kts | 130° |
| 2026-04-15 08:45 | 42.85555 | 19.84292 | 39110 ft | 442 kts | 131° |
| 2026-04-15 08:46 | 42.81663 | 19.90784 | 39107 ft | 442 kts | 131° |
| 2026-04-15 08:46 | 42.77768 | 19.97264 | 39123 ft | 442 kts | 131° |
| 2026-04-15 08:47 | 42.73866 | 20.03744 | 39122 ft | 443 kts | 131° |
| 2026-04-15 08:47 | 42.69953 | 20.10215 | 39130 ft | 443 kts | 131° |
| 2026-04-15 08:48 | 42.66037 | 20.16674 | 39123 ft | 443 kts | 131° |
| 2026-04-15 08:48 | 42.62122 | 20.23122 | 39143 ft | 442 kts | 131° |
| 2026-04-15 08:49 | 42.58201 | 20.29566 | 39149 ft | 443 kts | 131° |
| 2026-04-15 08:49 | 42.54276 | 20.36006 | 39153 ft | 443 kts | 131° |
| 2026-04-15 08:50 | 42.50343 | 20.42441 | 39156 ft | 443 kts | 131° |
| 2026-04-15 08:50 | 42.46406 | 20.48870 | 39149 ft | 443 kts | 131° |
| 2026-04-15 08:51 | 42.42471 | 20.55282 | 39155 ft | 442 kts | 131° |
| 2026-04-15 08:51 | 42.38539 | 20.61676 | 39160 ft | 442 kts | 132° |
| 2026-04-15 08:52 | 42.34609 | 20.68051 | 39162 ft | 441 kts | 132° |
| 2026-04-15 08:52 | 42.30705 | 20.74372 | 39163 ft | 441 kts | 132° |
| 2026-04-15 08:53 | 42.26779 | 20.80716 | 39155 ft | 440 kts | 132° |
| 2026-04-15 08:53 | 42.22855 | 20.87041 | 39166 ft | 439 kts | 133° |
| 2026-04-15 08:54 | 42.18933 | 20.93352 | 39166 ft | 438 kts | 133° |
| 2026-04-15 08:54 | 42.15016 | 20.99643 | 39178 ft | 438 kts | 132° |
| 2026-04-15 08:55 | 42.11084 | 21.05908 | 39186 ft | 438 kts | 135° |
| 2026-04-15 08:55 | 42.06738 | 21.11623 | 39180 ft | 437 kts | 140° |
| 2026-04-15 08:56 | 42.02268 | 21.17156 | 39190 ft | 436 kts | 139° |
| 2026-04-15 08:56 | 41.97817 | 21.22705 | 39185 ft | 436 kts | 139° |
| 2026-04-15 08:57 | 41.93384 | 21.28279 | 39198 ft | 436 kts | 139° |
| 2026-04-15 08:57 | 41.88987 | 21.33816 | 39201 ft | 436 kts | 139° |
| 2026-04-15 08:58 | 41.84565 | 21.39383 | 39196 ft | 436 kts | 139° |
| 2026-04-15 08:58 | 41.77912 | 21.47736 | 39195 ft | 437 kts | 139° |
| 2026-04-15 08:59 | 41.73466 | 21.53302 | 39207 ft | 438 kts | 139° |
| 2026-04-15 08:59 | 41.68997 | 21.58884 | 39194 ft | 440 kts | 139° |
| 2026-04-15 09:00 | 41.64550 | 21.64435 | 39202 ft | 439 kts | 139° |
| 2026-04-15 09:00 | 41.60050 | 21.70033 | 39200 ft | 439 kts | 139° |
| 2026-04-15 09:01 | 41.55600 | 21.75556 | 39199 ft | 440 kts | 139° |
| 2026-04-15 09:01 | 41.51115 | 21.81114 | 39184 ft | 440 kts | 139° |
| 2026-04-15 09:02 | 41.46630 | 21.86661 | 39200 ft | 440 kts | 139° |
| 2026-04-15 09:02 | 41.42127 | 21.92219 | 39189 ft | 442 kts | 139° |
| 2026-04-15 09:03 | 41.37606 | 21.97789 | 39197 ft | 442 kts | 139° |
| 2026-04-15 09:03 | 41.33082 | 22.03353 | 39203 ft | 443 kts | 139° |
| 2026-04-15 09:04 | 41.28540 | 22.08927 | 39199 ft | 444 kts | 139° |
| 2026-04-15 09:04 | 41.23992 | 22.14499 | 39193 ft | 445 kts | 140° |
| 2026-04-15 09:05 | 41.19443 | 22.20061 | 39209 ft | 445 kts | 140° |
| 2026-04-15 09:05 | 41.14854 | 22.25568 | 39209 ft | 444 kts | 142° |
| 2026-04-15 09:06 | 41.10079 | 22.30739 | 39208 ft | 443 kts | 144° |
| 2026-04-15 09:06 | 41.05270 | 22.35826 | 39208 ft | 441 kts | 144° |
| 2026-04-15 09:07 | 41.00519 | 22.40888 | 39205 ft | 440 kts | 144° |
| 2026-04-15 09:07 | 40.95771 | 22.45973 | 39207 ft | 438 kts | 144° |
| 2026-04-15 09:08 | 40.91035 | 22.51044 | 39205 ft | 437 kts | 144° |
| 2026-04-15 09:08 | 40.86306 | 22.56097 | 39216 ft | 437 kts | 144° |
| 2026-04-15 09:09 | 40.81576 | 22.61143 | 39211 ft | 437 kts | 144° |
| 2026-04-15 09:09 | 40.76832 | 22.66191 | 39217 ft | 438 kts | 144° |
| 2026-04-15 09:10 | 40.72071 | 22.71248 | 39210 ft | 440 kts | 144° |
| 2026-04-15 09:10 | 40.67294 | 22.76314 | 39211 ft | 441 kts | 144° |
| 2026-04-15 09:11 | 40.62510 | 22.81378 | 39209 ft | 442 kts | 144° |
| 2026-04-15 09:11 | 40.57699 | 22.86461 | 39215 ft | 444 kts | 144° |
| 2026-04-15 09:12 | 40.52878 | 22.91546 | 39215 ft | 445 kts | 144° |
| 2026-04-15 09:12 | 40.48037 | 22.96642 | 39215 ft | 446 kts | 144° |
| 2026-04-15 09:13 | 40.43392 | 23.02007 | 39217 ft | 450 kts | 137° |
| 2026-04-15 09:13 | 40.39094 | 23.08006 | 39208 ft | 452 kts | 136° |
| 2026-04-15 09:14 | 40.34824 | 23.14054 | 39199 ft | 451 kts | 136° |
| 2026-04-15 09:14 | 40.30525 | 23.20047 | 39194 ft | 451 kts | 137° |
| 2026-04-15 09:15 | 40.26214 | 23.25986 | 39195 ft | 449 kts | 137° |
| 2026-04-15 09:15 | 40.21911 | 23.31883 | 39204 ft | 447 kts | 137° |
| 2026-04-15 09:16 | 40.17617 | 23.37760 | 39200 ft | 446 kts | 137° |
| 2026-04-15 09:16 | 40.13335 | 23.43615 | 39193 ft | 444 kts | 138° |
| 2026-04-15 09:17 | 40.09075 | 23.49430 | 39200 ft | 442 kts | 138° |
| 2026-04-15 09:17 | 40.04854 | 23.55177 | 39207 ft | 441 kts | 138° |
| 2026-04-15 09:18 | 40.00614 | 23.60940 | 39214 ft | 439 kts | 138° |
| 2026-04-15 09:18 | 39.96392 | 23.66672 | 39201 ft | 438 kts | 138° |
| 2026-04-15 09:19 | 39.92166 | 23.72391 | 39215 ft | 438 kts | 138° |
| 2026-04-15 09:19 | 39.87931 | 23.78112 | 39200 ft | 438 kts | 139° |
| 2026-04-15 09:20 | 39.84411 | 23.82859 | 39214 ft | 439 kts | 139° |
| 2026-04-15 09:20 | 39.80163 | 23.88580 | 39213 ft | 440 kts | 139° |
| 2026-04-15 09:21 | 39.75893 | 23.94318 | 39210 ft | 442 kts | 140° |
| 2026-04-15 09:21 | 39.71613 | 24.00060 | 39214 ft | 443 kts | 140° |
| 2026-04-15 09:22 | 39.67317 | 24.05812 | 39207 ft | 444 kts | 140° |
| 2026-04-15 09:22 | 39.63004 | 24.11578 | 39205 ft | 445 kts | 140° |
| 2026-04-15 09:23 | 39.58684 | 24.17340 | 39206 ft | 446 kts | 140° |
| 2026-04-15 09:23 | 39.54358 | 24.23102 | 39204 ft | 446 kts | 140° |
| 2026-04-15 09:24 | 39.50022 | 24.28865 | 39205 ft | 447 kts | 140° |
| 2026-04-15 09:24 | 39.45712 | 24.34580 | 39196 ft | 446 kts | 140° |
| 2026-04-15 09:25 | 39.41377 | 24.40321 | 39182 ft | 445 kts | 140° |
| 2026-04-15 09:25 | 39.37049 | 24.46044 | 39192 ft | 445 kts | 140° |
| 2026-04-15 09:26 | 39.32726 | 24.51755 | 39191 ft | 444 kts | 140° |
| 2026-04-15 09:26 | 39.28439 | 24.57503 | 39184 ft | 444 kts | 139° |
| 2026-04-15 09:27 | 39.24165 | 24.63248 | 39189 ft | 443 kts | 139° |
| 2026-04-15 09:27 | 39.19889 | 24.68974 | 39188 ft | 443 kts | 140° |
| 2026-04-15 09:28 | 39.15618 | 24.74681 | 39186 ft | 442 kts | 140° |
| 2026-04-15 09:28 | 39.11345 | 24.80373 | 39182 ft | 442 kts | 140° |
| 2026-04-15 09:29 | 39.07039 | 24.86023 | 39183 ft | 442 kts | 140° |
| 2026-04-15 09:29 | 39.02703 | 24.91627 | 39183 ft | 442 kts | 140° |
| 2026-04-15 09:30 | 38.98365 | 24.97233 | 39176 ft | 442 kts | 140° |
| 2026-04-15 09:30 | 38.94021 | 25.02840 | 39164 ft | 443 kts | 140° |
| 2026-04-15 09:31 | 38.89682 | 25.08436 | 39176 ft | 443 kts | 140° |
| 2026-04-15 09:31 | 38.85357 | 25.14010 | 39172 ft | 443 kts | 140° |
| 2026-04-15 09:32 | 38.80974 | 25.19648 | 39167 ft | 444 kts | 140° |
| 2026-04-15 09:32 | 38.76615 | 25.25242 | 39164 ft | 444 kts | 140° |
| 2026-04-15 09:33 | 38.72277 | 25.30799 | 39159 ft | 444 kts | 140° |
| 2026-04-15 09:33 | 38.67913 | 25.36381 | 39149 ft | 443 kts | 140° |
| 2026-04-15 09:34 | 38.63554 | 25.41946 | 39144 ft | 442 kts | 140° |
| 2026-04-15 09:34 | 38.59213 | 25.47480 | 39142 ft | 440 kts | 141° |
| 2026-04-15 09:35 | 38.54870 | 25.53002 | 39147 ft | 438 kts | 141° |
| 2026-04-15 09:35 | 38.50554 | 25.58483 | 39143 ft | 437 kts | 141° |
| 2026-04-15 09:36 | 38.46247 | 25.63941 | 39138 ft | 435 kts | 141° |
| 2026-04-15 09:36 | 38.41953 | 25.69374 | 39143 ft | 434 kts | 141° |
| 2026-04-15 09:37 | 38.37670 | 25.74783 | 39133 ft | 433 kts | 141° |
| 2026-04-15 09:37 | 38.33415 | 25.80177 | 39119 ft | 434 kts | 141° |
| 2026-04-15 09:38 | 38.29137 | 25.85612 | 39128 ft | 435 kts | 141° |
| 2026-04-15 09:38 | 38.24837 | 25.91035 | 39112 ft | 435 kts | 142° |
| 2026-04-15 09:39 | 38.20315 | 25.96120 | 39104 ft | 434 kts | 145° |
| 2026-04-15 09:39 | 38.15720 | 26.01109 | 39110 ft | 435 kts | 145° |
| 2026-04-15 09:40 | 38.11130 | 26.06149 | 39099 ft | 436 kts | 145° |
| 2026-04-15 09:40 | 38.06553 | 26.11199 | 39112 ft | 436 kts | 145° |
| 2026-04-15 09:41 | 38.01963 | 26.16248 | 39114 ft | 436 kts | 145° |
| 2026-04-15 09:41 | 37.97498 | 26.21154 | 39117 ft | 436 kts | 145° |
| 2026-04-15 09:42 | 37.92947 | 26.26148 | 39102 ft | 435 kts | 145° |
| 2026-04-15 09:42 | 37.88372 | 26.31160 | 39110 ft | 434 kts | 145° |
| 2026-04-15 09:43 | 37.83807 | 26.36158 | 39111 ft | 434 kts | 145° |
| 2026-04-15 09:43 | 37.79337 | 26.41054 | 39102 ft | 433 kts | 145° |
| 2026-04-15 09:44 | 37.74775 | 26.46047 | 39107 ft | 433 kts | 145° |
| 2026-04-15 09:44 | 37.70215 | 26.51027 | 39104 ft | 433 kts | 145° |
| 2026-04-15 09:45 | 37.65646 | 26.56000 | 39107 ft | 434 kts | 145° |
| 2026-04-15 09:45 | 37.61067 | 26.60960 | 39102 ft | 434 kts | 145° |
| 2026-04-15 09:46 | 37.56484 | 26.65915 | 39110 ft | 435 kts | 145° |
| 2026-04-15 09:46 | 37.51885 | 26.70885 | 39109 ft | 436 kts | 145° |
| 2026-04-15 09:47 | 37.47263 | 26.75870 | 39103 ft | 438 kts | 145° |
| 2026-04-15 09:47 | 37.42664 | 26.80826 | 39104 ft | 438 kts | 145° |
| 2026-04-15 09:48 | 37.38058 | 26.85886 | 39105 ft | 441 kts | 143° |
| 2026-04-15 09:48 | 37.33607 | 26.91205 | 39098 ft | 442 kts | 142° |
| 2026-04-15 09:49 | 37.29171 | 26.96578 | 39106 ft | 443 kts | 142° |
| 2026-04-15 09:49 | 37.24715 | 27.01930 | 39107 ft | 444 kts | 142° |
| 2026-04-15 09:50 | 37.20237 | 27.07270 | 39105 ft | 444 kts | 142° |
| 2026-04-15 09:50 | 37.15776 | 27.12570 | 39105 ft | 445 kts | 142° |
| 2026-04-15 09:51 | 37.11275 | 27.17909 | 39091 ft | 445 kts | 142° |
| 2026-04-15 09:51 | 37.06780 | 27.23233 | 39105 ft | 445 kts | 142° |
| 2026-04-15 09:52 | 37.02267 | 27.28569 | 39111 ft | 447 kts | 142° |
| 2026-04-15 09:52 | 36.97746 | 27.33905 | 39106 ft | 447 kts | 142° |
| 2026-04-15 09:53 | 36.93217 | 27.39240 | 39098 ft | 447 kts | 143° |
| 2026-04-15 09:53 | 36.88681 | 27.44577 | 39103 ft | 447 kts | 143° |
| 2026-04-15 09:54 | 36.84145 | 27.49904 | 39091 ft | 448 kts | 143° |
| 2026-04-15 09:54 | 36.79606 | 27.55227 | 39103 ft | 448 kts | 143° |
| 2026-04-15 09:55 | 36.75058 | 27.60547 | 39090 ft | 448 kts | 143° |
| 2026-04-15 09:55 | 36.70520 | 27.65852 | 39096 ft | 448 kts | 143° |
| 2026-04-15 09:56 | 36.65970 | 27.71157 | 39100 ft | 448 kts | 143° |
| 2026-04-15 09:57 | 36.59168 | 27.79073 | 39084 ft | 448 kts | 143° |
| 2026-04-15 09:57 | 36.54604 | 27.84374 | 39082 ft | 449 kts | 143° |
| 2026-04-15 09:58 | 36.50040 | 27.89666 | 39082 ft | 449 kts | 143° |
| 2026-04-15 09:58 | 36.45473 | 27.94953 | 39077 ft | 449 kts | 143° |
| 2026-04-15 09:59 | 36.40900 | 28.00240 | 39075 ft | 449 kts | 143° |
| 2026-04-15 09:59 | 36.36368 | 28.05582 | 39072 ft | 454 kts | 137° |
| 2026-04-15 10:00 | 36.32924 | 28.12245 | 39074 ft | 466 kts | 117° |
| 2026-04-15 10:00 | 36.30875 | 28.19938 | 39093 ft | 471 kts | 111° |
| 2026-04-15 10:01 | 36.28996 | 28.27707 | 39102 ft | 471 kts | 111° |
| 2026-04-15 10:01 | 36.27040 | 28.35470 | 39095 ft | 471 kts | 112° |
| 2026-04-15 10:02 | 36.25061 | 28.43156 | 39095 ft | 471 kts | 112° |
| 2026-04-15 10:02 | 36.23066 | 28.50890 | 39099 ft | 471 kts | 112° |
| 2026-04-15 10:03 | 36.21056 | 28.58633 | 39097 ft | 471 kts | 112° |
| 2026-04-15 10:03 | 36.19045 | 28.66352 | 39109 ft | 471 kts | 112° |
| 2026-04-15 10:04 | 36.17027 | 28.74079 | 39089 ft | 472 kts | 112° |
| 2026-04-15 10:04 | 36.15003 | 28.81807 | 39109 ft | 471 kts | 112° |
| 2026-04-15 10:05 | 36.12991 | 28.89468 | 39099 ft | 471 kts | 112° |
| 2026-04-15 10:05 | 36.10963 | 28.97172 | 39102 ft | 471 kts | 112° |
| 2026-04-15 10:06 | 36.08929 | 29.04877 | 39107 ft | 471 kts | 112° |
| 2026-04-15 10:06 | 36.06887 | 29.12583 | 39106 ft | 472 kts | 112° |
| 2026-04-15 10:07 | 36.04840 | 29.20289 | 39108 ft | 472 kts | 112° |
| 2026-04-15 10:07 | 36.02785 | 29.28006 | 39101 ft | 472 kts | 112° |
| 2026-04-15 10:08 | 36.00723 | 29.35715 | 39102 ft | 472 kts | 112° |
| 2026-04-15 10:08 | 35.98663 | 29.43407 | 39101 ft | 472 kts | 112° |
| 2026-04-15 10:09 | 35.96944 | 29.49811 | 39106 ft | 472 kts | 113° |
| 2026-04-15 10:09 | 35.94531 | 29.58757 | 39098 ft | 473 kts | 113° |
| 2026-04-15 10:10 | 35.92800 | 29.65153 | 39105 ft | 473 kts | 113° |
| 2026-04-15 10:10 | 35.90710 | 29.72849 | 39103 ft | 474 kts | 113° |
| 2026-04-15 10:11 | 35.88612 | 29.80558 | 39104 ft | 475 kts | 113° |
| 2026-04-15 10:11 | 35.86506 | 29.88282 | 39097 ft | 475 kts | 113° |
| 2026-04-15 10:12 | 35.84394 | 29.96009 | 39098 ft | 476 kts | 113° |
| 2026-04-15 10:12 | 35.82309 | 30.03749 | 39095 ft | 476 kts | 111° |
| 2026-04-15 10:13 | 35.80362 | 30.11544 | 39088 ft | 476 kts | 111° |
| 2026-04-15 10:13 | 35.78429 | 30.19359 | 39092 ft | 476 kts | 111° |
| 2026-04-15 10:14 | 35.76476 | 30.27150 | 39094 ft | 476 kts | 111° |
| 2026-04-15 10:14 | 35.74509 | 30.34928 | 39095 ft | 476 kts | 111° |
| 2026-04-15 10:15 | 35.72534 | 30.42705 | 39082 ft | 476 kts | 111° |
| 2026-04-15 10:15 | 35.70557 | 30.50472 | 39091 ft | 475 kts | 111° |
| 2026-04-15 10:16 | 35.68579 | 30.58224 | 39089 ft | 475 kts | 111° |
| 2026-04-15 10:16 | 35.67585 | 30.62107 | 38911 ft | 479 kts | 111° |
| 2026-04-15 10:16 | 35.66575 | 30.66044 | 38349 ft | 482 kts | 111° |
| 2026-04-15 10:16 | 35.65571 | 30.69956 | 37804 ft | 480 kts | 111° |
| 2026-04-15 10:17 | 35.64571 | 30.73857 | 37257 ft | 477 kts | 111° |
| 2026-04-15 10:17 | 35.63572 | 30.77743 | 36713 ft | 476 kts | 111° |
| 2026-04-15 10:17 | 35.62575 | 30.81612 | 36226 ft | 473 kts | 111° |
| 2026-04-15 10:17 | 35.61601 | 30.85387 | 35869 ft | 467 kts | 111° |
| 2026-04-15 10:18 | 35.60619 | 30.89232 | 35475 ft | 462 kts | 110° |
| 2026-04-15 10:18 | 35.59685 | 30.92933 | 35078 ft | 459 kts | 110° |
| 2026-04-15 10:18 | 35.58744 | 30.96662 | 34662 ft | 455 kts | 110° |
| 2026-04-15 10:18 | 35.57808 | 31.00363 | 34260 ft | 452 kts | 110° |
| 2026-04-15 10:19 | 35.56876 | 31.04038 | 33839 ft | 449 kts | 110° |
| 2026-04-15 10:19 | 35.55950 | 31.07683 | 33410 ft | 446 kts | 110° |
| 2026-04-15 10:19 | 35.55028 | 31.11305 | 33005 ft | 442 kts | 110° |
| 2026-04-15 10:19 | 35.54114 | 31.14897 | 32606 ft | 439 kts | 110° |
| 2026-04-15 10:20 | 35.53205 | 31.18450 | 32221 ft | 435 kts | 111° |
| 2026-04-15 10:20 | 35.52301 | 31.21983 | 31833 ft | 432 kts | 111° |
| 2026-04-15 10:20 | 35.51400 | 31.25495 | 31443 ft | 429 kts | 111° |
| 2026-04-15 10:20 | 35.50507 | 31.28975 | 31077 ft | 426 kts | 111° |
| 2026-04-15 10:21 | 35.49624 | 31.32418 | 30700 ft | 423 kts | 111° |
| 2026-04-15 10:21 | 35.48743 | 31.35847 | 30333 ft | 420 kts | 111° |
| 2026-04-15 10:21 | 35.47866 | 31.39251 | 29929 ft | 417 kts | 111° |
| 2026-04-15 10:21 | 35.46995 | 31.42630 | 29503 ft | 413 kts | 111° |
| 2026-04-15 10:22 | 35.46129 | 31.45982 | 29119 ft | 409 kts | 111° |
| 2026-04-15 10:22 | 35.45275 | 31.49294 | 28720 ft | 406 kts | 111° |
| 2026-04-15 10:22 | 35.44424 | 31.52572 | 28333 ft | 402 kts | 112° |
| 2026-04-15 10:22 | 35.43552 | 31.55801 | 27965 ft | 397 kts | 111° |
| 2026-04-15 10:23 | 35.42722 | 31.59017 | 27581 ft | 394 kts | 110° |
| 2026-04-15 10:23 | 35.41901 | 31.62217 | 27193 ft | 393 kts | 110° |
| 2026-04-15 10:23 | 35.41080 | 31.65401 | 26818 ft | 390 kts | 110° |
| 2026-04-15 10:23 | 35.40263 | 31.68560 | 26446 ft | 388 kts | 110° |
| 2026-04-15 10:24 | 35.39451 | 31.71691 | 26085 ft | 385 kts | 110° |
| 2026-04-15 10:24 | 35.38638 | 31.74810 | 25701 ft | 383 kts | 110° |
| 2026-04-15 10:24 | 35.37828 | 31.77913 | 25346 ft | 381 kts | 110° |
| 2026-04-15 10:24 | 35.37021 | 31.81001 | 24976 ft | 379 kts | 110° |
| 2026-04-15 10:25 | 35.36219 | 31.84065 | 24617 ft | 377 kts | 109° |
| 2026-04-15 10:25 | 35.35416 | 31.87124 | 24246 ft | 376 kts | 109° |
| 2026-04-15 10:25 | 35.34629 | 31.90121 | 23879 ft | 375 kts | 109° |
| 2026-04-15 10:25 | 35.33830 | 31.93158 | 23500 ft | 374 kts | 108° |
| 2026-04-15 10:26 | 35.33034 | 31.96183 | 23090 ft | 372 kts | 109° |
| 2026-04-15 10:26 | 35.32244 | 31.99191 | 22701 ft | 371 kts | 109° |
| 2026-04-15 10:26 | 35.31450 | 32.02202 | 22328 ft | 369 kts | 109° |
| 2026-04-15 10:26 | 35.30662 | 32.05181 | 21977 ft | 368 kts | 109° |
| 2026-04-15 10:27 | 35.29881 | 32.08150 | 21604 ft | 366 kts | 108° |
| 2026-04-15 10:27 | 35.29104 | 32.11127 | 21242 ft | 366 kts | 108° |
| 2026-04-15 10:27 | 35.28310 | 32.14076 | 20890 ft | 364 kts | 109° |
| 2026-04-15 10:27 | 35.27541 | 32.17014 | 20536 ft | 364 kts | 107° |
| 2026-04-15 10:28 | 35.26858 | 32.19998 | 20183 ft | 364 kts | 107° |
| 2026-04-15 10:28 | 35.26115 | 32.22967 | 19830 ft | 365 kts | 108° |
| 2026-04-15 10:28 | 35.25316 | 32.25927 | 19487 ft | 368 kts | 109° |
| 2026-04-15 10:28 | 35.24492 | 32.28880 | 19126 ft | 368 kts | 110° |
| 2026-04-15 10:29 | 35.23681 | 32.31859 | 18746 ft | 368 kts | 109° |
| 2026-04-15 10:29 | 35.22857 | 32.34823 | 18377 ft | 368 kts | 109° |
| 2026-04-15 10:29 | 35.22062 | 32.37801 | 17996 ft | 367 kts | 108° |
| 2026-04-15 10:29 | 35.21303 | 32.40734 | 17608 ft | 366 kts | 108° |
| 2026-04-15 10:30 | 35.20538 | 32.43696 | 17235 ft | 364 kts | 109° |
| 2026-04-15 10:30 | 35.19771 | 32.46649 | 16877 ft | 362 kts | 109° |
| 2026-04-15 10:30 | 35.19008 | 32.49568 | 16518 ft | 360 kts | 109° |
| 2026-04-15 10:30 | 35.18241 | 32.52481 | 16164 ft | 359 kts | 110° |
| 2026-04-15 10:31 | 35.17475 | 32.55377 | 15817 ft | 357 kts | 110° |
| 2026-04-15 10:31 | 35.16713 | 32.58254 | 15470 ft | 355 kts | 110° |
| 2026-04-15 10:31 | 35.15952 | 32.61120 | 15113 ft | 355 kts | 110° |
| 2026-04-15 10:31 | 35.15191 | 32.63983 | 14754 ft | 354 kts | 111° |
| 2026-04-15 10:32 | 35.14431 | 32.66842 | 14422 ft | 353 kts | 111° |
| 2026-04-15 10:32 | 35.13670 | 32.69696 | 14048 ft | 352 kts | 112° |
| 2026-04-15 10:32 | 35.12912 | 32.72535 | 13682 ft | 352 kts | 111° |
| 2026-04-15 10:32 | 35.12159 | 32.75362 | 13305 ft | 349 kts | 111° |
| 2026-04-15 10:33 | 35.11416 | 32.78144 | 12956 ft | 348 kts | 111° |
| 2026-04-15 10:33 | 35.10658 | 32.80979 | 12598 ft | 346 kts | 111° |
| 2026-04-15 10:33 | 35.09920 | 32.83732 | 12253 ft | 345 kts | 110° |
| 2026-04-15 10:33 | 35.09177 | 32.86504 | 11903 ft | 342 kts | 110° |
| 2026-04-15 10:34 | 35.08439 | 32.89260 | 11574 ft | 340 kts | 110° |
| 2026-04-15 10:34 | 35.07703 | 32.91997 | 11237 ft | 338 kts | 109° |
| 2026-04-15 10:34 | 35.06966 | 32.94708 | 10942 ft | 335 kts | 110° |
| 2026-04-15 10:34 | 35.06204 | 32.97382 | 10689 ft | 330 kts | 110° |
| 2026-04-15 10:35 | 35.05447 | 33.00003 | 10439 ft | 325 kts | 110° |
| 2026-04-15 10:35 | 35.04700 | 33.02580 | 10217 ft | 319 kts | 110° |
| 2026-04-15 10:35 | 35.03964 | 33.05122 | 9944 ft | 316 kts | 110° |
| 2026-04-15 10:35 | 35.03250 | 33.07600 | 9933 ft | 303 kts | 110° |
| 2026-04-15 10:36 | 35.02564 | 33.09982 | 9698 ft | 297 kts | 110° |
| 2026-04-15 10:36 | 35.01868 | 33.12395 | 9294 ft | 301 kts | 110° |
| 2026-04-15 10:36 | 35.01174 | 33.14800 | 8974 ft | 299 kts | 109° |
| 2026-04-15 10:36 | 35.00479 | 33.17211 | 8549 ft | 303 kts | 110° |
| 2026-04-15 10:37 | 34.99775 | 33.19650 | 8136 ft | 305 kts | 110° |
| 2026-04-15 10:37 | 34.99067 | 33.22098 | 7727 ft | 307 kts | 110° |
| 2026-04-15 10:37 | 34.98356 | 33.24558 | 7301 ft | 308 kts | 109° |
| 2026-04-15 10:37 | 34.97651 | 33.26995 | 6888 ft | 309 kts | 110° |
| 2026-04-15 10:38 | 34.96935 | 33.29467 | 6468 ft | 309 kts | 109° |
| 2026-04-15 10:38 | 34.96219 | 33.31939 | 6019 ft | 308 kts | 109° |
| 2026-04-15 10:38 | 34.95520 | 33.34339 | 5772 ft | 293 kts | 109° |
| 2026-04-15 10:38 | 34.94854 | 33.36625 | 5533 ft | 278 kts | 109° |
| 2026-04-15 10:39 | 34.94221 | 33.38800 | 5334 ft | 265 kts | 109° |
| 2026-04-15 10:39 | 34.93484 | 33.40800 | 5112 ft | 255 kts | 126° |
| 2026-04-15 10:39 | 34.92140 | 33.42150 | 4953 ft | 252 kts | 153° |
| 2026-04-15 10:39 | 34.90453 | 33.42712 | 4898 ft | 256 kts | 174° |
| 2026-04-15 10:40 | 34.88653 | 33.42539 | 4823 ft | 265 kts | 188° |
| 2026-04-15 10:40 | 34.86839 | 33.42091 | 4691 ft | 263 kts | 190° |
| 2026-04-15 10:40 | 34.85115 | 33.41634 | 4565 ft | 250 kts | 189° |
| 2026-04-15 10:40 | 34.83466 | 33.41211 | 4476 ft | 234 kts | 189° |
| 2026-04-15 10:41 | 34.81919 | 33.40821 | 4431 ft | 220 kts | 188° |
| 2026-04-15 10:41 | 34.80446 | 33.40456 | 4363 ft | 212 kts | 188° |
| 2026-04-15 10:41 | 34.79007 | 33.40111 | 4307 ft | 209 kts | 186° |
| 2026-04-15 10:41 | 34.77586 | 33.39771 | 4268 ft | 208 kts | 185° |
| 2026-04-15 10:42 | 34.76143 | 33.39421 | 4213 ft | 214 kts | 185° |
| 2026-04-15 10:42 | 34.74686 | 33.39072 | 4159 ft | 210 kts | 185° |
| 2026-04-15 10:42 | 34.73278 | 33.39079 | 3995 ft | 196 kts | 154° |
| 2026-04-15 10:42 | 34.72244 | 33.39994 | 3985 ft | 181 kts | 123° |
| 2026-04-15 10:43 | 34.71758 | 33.41380 | 3988 ft | 180 kts | 96° |
| 2026-04-15 10:43 | 34.71960 | 33.42920 | 3534 ft | 201 kts | 59° |
| 2026-04-15 10:43 | 34.72838 | 33.44203 | 3410 ft | 191 kts | 54° |
| 2026-04-15 10:43 | 34.73646 | 33.45417 | 3285 ft | 180 kts | 53° |
| 2026-04-15 10:44 | 34.74466 | 33.46534 | 3108 ft | 172 kts | 49° |
| 2026-04-15 10:44 | 34.75298 | 33.47596 | 2796 ft | 173 kts | 49° |
| 2026-04-15 10:44 | 34.76148 | 33.48654 | 2467 ft | 174 kts | 47° |
| 2026-04-15 10:44 | 34.76972 | 33.49668 | 2360 ft | 164 kts | 47° |
| 2026-04-15 10:45 | 34.77763 | 33.50638 | 2221 ft | 158 kts | 48° |
| 2026-04-15 10:45 | 34.78526 | 33.51573 | 2013 ft | 155 kts | 48° |
| 2026-04-15 10:45 | 34.79274 | 33.52485 | 1940 ft | 153 kts | 43° |
| 2026-04-15 10:45 | 34.80063 | 33.53443 | 1782 ft | 163 kts | 42° |
| 2026-04-15 10:46 | 34.80811 | 33.54367 | 1596 ft | 145 kts | 44° |
| 2026-04-15 10:46 | 34.81500 | 33.55214 | 1403 ft | 140 kts | 42° |
| 2026-04-15 10:46 | 34.82186 | 33.56052 | 1246 ft | 141 kts | 43° |
| 2026-04-15 10:46 | 34.82895 | 33.56919 | 1029 ft | 146 kts | 43° |
| 2026-04-15 10:47 | 34.83611 | 33.57793 | 843 ft | 145 kts | 44° |
| 2026-04-15 10:47 | 34.84319 | 33.58660 | 625 ft | 141 kts | 45° |
| 2026-04-15 10:47 | 34.84999 | 33.59491 | 453 ft | 138 kts | 44° |
| 2026-04-15 10:47 | 34.85693 | 33.60339 | 304 ft | 143 kts | 45° |
| 2026-04-15 10:48 | 34.86397 | 33.61196 | 69 ft | 143 kts | 45° |
| 2026-04-15 10:48 | 34.87053 | 33.61998 | 21 ft | 122 kts | 45° |
| 2026-04-15 10:48 | 34.87551 | 33.62608 | 17 ft | 79 kts | 45° |
| 2026-04-15 10:48 | 34.87817 | 33.62929 | 20 ft | 11 kts | 44° |
| 2026-04-15 10:49 | 34.87850 | 33.62947 | 19 ft | 0 kts | 358° |
| 2026-04-15 10:49 | 34.87853 | 33.62938 | 20 ft | 3 kts | 298° |
| 2026-04-15 10:49 | 34.87881 | 33.62886 | 20 ft | 14 kts | 309° |
| 2026-04-15 10:49 | 34.87954 | 33.62795 | 21 ft | 9 kts | 310° |
| 2026-04-15 10:50 | 34.87940 | 33.62724 | 20 ft | 10 kts | 226° |
| 2026-04-15 10:50 | 34.87894 | 33.62666 | 22 ft | 9 kts | 226° |
| 2026-04-15 10:50 | 34.87848 | 33.62611 | 19 ft | 9 kts | 222° |
| 2026-04-15 10:50 | 34.87799 | 33.62551 | 18 ft | 10 kts | 225° |
| 2026-04-15 10:51 | 34.87748 | 33.62490 | 17 ft | 10 kts | 225° |
| 2026-04-15 10:51 | 34.87699 | 33.62431 | 18 ft | 10 kts | 225° |
| 2026-04-15 10:51 | 34.87652 | 33.62371 | 17 ft | 10 kts | 227° |
| 2026-04-15 10:51 | 34.87600 | 33.62308 | 16 ft | 11 kts | 225° |
| 2026-04-15 10:52 | 34.87547 | 33.62243 | 17 ft | 11 kts | 225° |
| 2026-04-15 10:52 | 34.87496 | 33.62181 | 18 ft | 10 kts | 225° |
| 2026-04-15 10:52 | 34.87447 | 33.62120 | 18 ft | 10 kts | 225° |
| 2026-04-15 10:52 | 34.87398 | 33.62061 | 18 ft | 10 kts | 225° |
| 2026-04-15 10:53 | 34.87351 | 33.62005 | 19 ft | 9 kts | 225° |
| 2026-04-15 10:53 | 34.87306 | 33.61949 | 22 ft | 9 kts | 225° |
| 2026-04-15 10:53 | 34.87261 | 33.61894 | 22 ft | 9 kts | 227° |
| 2026-04-15 10:53 | 34.87218 | 33.61840 | 21 ft | 9 kts | 223° |
| 2026-04-15 10:54 | 34.87174 | 33.61786 | 19 ft | 9 kts | 226° |
| 2026-04-15 10:54 | 34.87131 | 33.61735 | 21 ft | 9 kts | 224° |
| 2026-04-15 10:54 | 34.87090 | 33.61684 | 20 ft | 8 kts | 225° |
| 2026-04-15 10:54 | 34.87050 | 33.61635 | 20 ft | 8 kts | 225° |
| 2026-04-15 10:55 | 34.87004 | 33.61578 | 18 ft | 12 kts | 225° |
| 2026-04-15 10:55 | 34.86928 | 33.61485 | 19 ft | 16 kts | 225° |
| 2026-04-15 10:55 | 34.86880 | 33.61398 | 17 ft | 12 kts | 283° |
| 2026-04-15 10:55 | 34.86936 | 33.61318 | 20 ft | 12 kts | 314° |
| 2026-04-15 10:56 | 34.86996 | 33.61246 | 19 ft | 12 kts | 315° |
| 2026-04-15 10:56 | 34.87055 | 33.61176 | 21 ft | 12 kts | 315° |
| 2026-04-15 10:56 | 34.87079 | 33.61138 | 21 ft | 3 kts | 282° |
| 2026-04-15 10:56 | 34.87068 | 33.61113 | 19 ft | 3 kts | 235° |
| 2026-04-15 10:57 | 34.87055 | 33.61089 | 21 ft | 3 kts | 235° |
| 2026-04-15 10:57 | 34.87033 | 33.61050 | 21 ft | 0 kts | 236° |